CHX76 EDDG-ZZZZ
Flight info
| Callsign | CHX76 |
|---|---|
| Flight time | N/A |
| Altitude | 1500 |
| Route | VFR |
| Aircraft | EC45/L-DGV/C |
Departure
| Time | 2026-04-08 22:52 |
|---|---|
| Airport | Münster Osnabrück Airport (EDDG) |
Arrival
| Time | N/A |
|---|---|
| Airport | ZZZZ |
| Time | Latitude | Longitude | Altitude | Speed | Heading |
|---|---|---|---|---|---|
| 2026-04-08 22:45 | 52.12325 | 7.69027 | 163 ft | 0 kts | 180° |
| 2026-04-08 22:51 | 52.12258 | 7.69011 | 371 ft | 20 kts | 178° |
| 2026-04-08 22:52 | 52.12004 | 7.68953 | 740 ft | 61 kts | 182° |
| 2026-04-08 22:52 | 52.11454 | 7.68867 | 984 ft | 96 kts | 178° |
| 2026-04-08 22:52 | 52.10704 | 7.68727 | 1098 ft | 120 kts | 179° |
| 2026-04-08 22:52 | 52.09827 | 7.68542 | 1179 ft | 129 kts | 180° |
| 2026-04-08 22:53 | 52.08963 | 7.68587 | 1201 ft | 122 kts | 163° |
| 2026-04-08 22:53 | 52.08133 | 7.68871 | 1214 ft | 122 kts | 160° |
| 2026-04-08 22:53 | 52.07309 | 7.69180 | 1225 ft | 121 kts | 160° |
| 2026-04-08 22:53 | 52.06533 | 7.69623 | 1226 ft | 116 kts | 143° |
| 2026-04-08 22:54 | 52.06044 | 7.70591 | 1231 ft | 112 kts | 113° |
| 2026-04-08 22:54 | 52.05854 | 7.71823 | 1228 ft | 111 kts | 98° |
| 2026-04-08 22:54 | 52.05808 | 7.73077 | 1225 ft | 111 kts | 90° |
| 2026-04-08 22:54 | 52.05810 | 7.74352 | 1220 ft | 117 kts | 91° |
| 2026-04-08 22:55 | 52.05768 | 7.75684 | 1230 ft | 121 kts | 94° |
| 2026-04-08 22:55 | 52.05677 | 7.77049 | 1225 ft | 120 kts | 97° |
| 2026-04-08 22:55 | 52.05553 | 7.78390 | 1226 ft | 124 kts | 98° |
| 2026-04-08 22:55 | 52.05402 | 7.79783 | 1227 ft | 126 kts | 99° |
| 2026-04-08 22:56 | 52.05243 | 7.81180 | 1228 ft | 125 kts | 99° |
| 2026-04-08 22:56 | 52.05083 | 7.82565 | 1232 ft | 125 kts | 100° |
| 2026-04-08 22:56 | 52.04919 | 7.83952 | 1226 ft | 126 kts | 100° |
| 2026-04-08 22:56 | 52.04754 | 7.85352 | 1228 ft | 126 kts | 100° |
| 2026-04-08 22:57 | 52.04591 | 7.86750 | 1230 ft | 126 kts | 100° |
| 2026-04-08 22:57 | 52.04418 | 7.88141 | 1232 ft | 126 kts | 101° |
| 2026-04-08 22:57 | 52.04116 | 7.89477 | 1230 ft | 126 kts | 112° |
| 2026-04-08 22:57 | 52.03734 | 7.90769 | 1226 ft | 127 kts | 114° |
| 2026-04-08 22:58 | 52.03339 | 7.92059 | 1230 ft | 128 kts | 114° |
| 2026-04-08 22:58 | 52.02945 | 7.93359 | 1230 ft | 128 kts | 114° |
| 2026-04-08 22:58 | 52.02555 | 7.94668 | 1226 ft | 129 kts | 114° |
| 2026-04-08 22:58 | 52.02168 | 7.95982 | 1226 ft | 129 kts | 113° |
| 2026-04-08 22:59 | 52.01786 | 7.97293 | 1231 ft | 128 kts | 113° |
| 2026-04-08 22:59 | 52.01407 | 7.98596 | 1234 ft | 128 kts | 113° |
| 2026-04-08 22:59 | 52.01027 | 7.99904 | 1224 ft | 128 kts | 113° |
| 2026-04-08 22:59 | 52.00647 | 8.01211 | 1225 ft | 128 kts | 113° |
| 2026-04-08 23:00 | 52.00266 | 8.02519 | 1223 ft | 128 kts | 113° |
| 2026-04-08 23:00 | 51.99885 | 8.03830 | 1223 ft | 129 kts | 113° |
| 2026-04-08 23:00 | 51.99502 | 8.05144 | 1222 ft | 129 kts | 113° |
| 2026-04-08 23:00 | 51.99125 | 8.06436 | 1223 ft | 128 kts | 113° |
| 2026-04-08 23:01 | 51.98743 | 8.07745 | 1225 ft | 128 kts | 113° |
| 2026-04-08 23:01 | 51.98362 | 8.09053 | 1225 ft | 128 kts | 113° |
| 2026-04-08 23:01 | 51.97981 | 8.10360 | 1231 ft | 129 kts | 113° |
| 2026-04-08 23:01 | 51.97596 | 8.11677 | 1228 ft | 130 kts | 113° |
| 2026-04-08 23:02 | 51.97211 | 8.12999 | 1229 ft | 130 kts | 113° |
| 2026-04-08 23:02 | 51.96825 | 8.14321 | 1228 ft | 130 kts | 113° |
| 2026-04-08 23:02 | 51.96439 | 8.15641 | 1231 ft | 129 kts | 113° |
| 2026-04-08 23:02 | 51.96054 | 8.16958 | 1230 ft | 129 kts | 113° |
| 2026-04-08 23:03 | 51.95670 | 8.18267 | 1226 ft | 129 kts | 113° |
| 2026-04-08 23:03 | 51.95284 | 8.19586 | 1229 ft | 129 kts | 113° |
| 2026-04-08 23:03 | 51.94898 | 8.20905 | 1230 ft | 129 kts | 113° |
| 2026-04-08 23:03 | 51.94514 | 8.22216 | 1230 ft | 129 kts | 114° |
| 2026-04-08 23:04 | 51.94127 | 8.23533 | 1231 ft | 130 kts | 113° |
| 2026-04-08 23:04 | 51.93740 | 8.24853 | 1224 ft | 129 kts | 114° |
| 2026-04-08 23:04 | 51.93426 | 8.25920 | 1229 ft | 130 kts | 113° |
| 2026-04-08 23:04 | 51.93038 | 8.27242 | 1224 ft | 130 kts | 113° |
| 2026-04-08 23:05 | 51.92653 | 8.28549 | 1233 ft | 130 kts | 114° |
| 2026-04-08 23:05 | 51.92263 | 8.29873 | 1226 ft | 129 kts | 113° |
| 2026-04-08 23:05 | 51.91882 | 8.31192 | 1092 ft | 129 kts | 113° |
| 2026-04-08 23:05 | 51.91497 | 8.32517 | 1031 ft | 131 kts | 114° |
| 2026-04-08 23:06 | 51.91104 | 8.33848 | 1007 ft | 131 kts | 114° |
| 2026-04-08 23:06 | 51.90689 | 8.35166 | 996 ft | 131 kts | 116° |
| 2026-04-08 23:06 | 51.90263 | 8.36478 | 985 ft | 132 kts | 116° |
| 2026-04-08 23:06 | 51.89845 | 8.37773 | 1007 ft | 119 kts | 116° |
| 2026-04-08 23:07 | 51.89541 | 8.38774 | 1031 ft | 85 kts | 118° |
| 2026-04-08 23:07 | 51.89775 | 8.39559 | 1140 ft | 79 kts | 49° |
| 2026-04-08 23:07 | 51.90066 | 8.40125 | 1334 ft | 49 kts | 61° |
| 2026-04-08 23:07 | 51.90225 | 8.40509 | 1243 ft | 37 kts | 67° |
| 2026-04-08 23:08 | 51.90340 | 8.40820 | 969 ft | 27 kts | 69° |
| 2026-04-08 23:08 | 51.90409 | 8.41058 | 833 ft | 20 kts | 73° |
| 2026-04-08 23:08 | 51.90599 | 8.41155 | 758 ft | 58 kts | 56° |
| 2026-04-08 23:08 | 51.90957 | 8.40742 | 747 ft | 70 kts | 307° |
| 2026-04-08 23:09 | 51.90884 | 8.40040 | 823 ft | 62 kts | 258° |
| 2026-04-08 23:09 | 51.90737 | 8.39384 | 920 ft | 62 kts | 249° |
| 2026-04-08 23:09 | 51.90542 | 8.38769 | 1021 ft | 56 kts | 222° |
| 2026-04-08 23:09 | 51.90232 | 8.38607 | 967 ft | 50 kts | 169° |
| 2026-04-08 23:10 | 51.89997 | 8.38511 | 829 ft | 25 kts | 166° |
| 2026-04-08 23:10 | 51.89959 | 8.38465 | 611 ft | 12 kts | 168° |
| 2026-04-08 23:10 | 51.89795 | 8.38514 | 531 ft | 31 kts | 127° |
| 2026-04-08 23:10 | 51.89700 | 8.38604 | 257 ft | 4 kts | 120° |
| 2026-04-08 23:11 | 51.89694 | 8.38612 | 254 ft | 0 kts | 120° |
| 2026-04-08 23:11 | 51.89693 | 8.38613 | 255 ft | 2 kts | 120° |
| 2026-04-08 23:11 | 51.89691 | 8.38612 | 254 ft | 0 kts | 117° |